BIRS weather

Reykjanes Airport
Reykjanes, Westfjords, Iceland

Public forecast

Using degrees Celsius for public forecast. Weather courtesy of forecast.io.

METAR (pilot weather report)

Closest report is Ísafjörður Airport, 19.5 nm (36.1 km) WNW. Retrieved 2019/04/18 16:45 UTC (1 hour ago):

BIIS 181645Z 22012G22KT 9999 FEW025 BKN030 BKN045 08/01 Q1004 RMK 08 22014G26

TAF (pilot weather forecast)

Closest forecast is Reykjavik Airport, 107.8 nm (199.7 km) S. Retrieved 2019/04/18 18:03 UTC (58 seconds ago):

TAF BIRK 181602Z 1818/1918 14015KT 9999 RA BKN020 OVC025 TX09/1912Z TN06/1918Z TEMPO 1818/1823 14017G27KT 5000 RADZ BR BKN015 OVC020 BECMG 1904/1906 -RA BKN015 OVC030 BECMG 1908/1910 14022G32KT RA